createdAt,value
2022-11-05T00:00:30.829Z,66.60
2022-11-05T00:03:16.476Z,66.50
2022-11-05T00:06:02.827Z,66.60
2022-11-05T00:08:48.417Z,66.60
2022-11-05T00:11:18.628Z,66.50
2022-11-05T00:14:04.050Z,66.60
2022-11-05T00:16:47.047Z,66.50
2022-11-05T00:19:16.733Z,66.50
2022-11-05T00:22:02.259Z,66.50
2022-11-05T00:24:47.702Z,66.50
2022-11-05T00:27:17.185Z,66.50
2022-11-05T00:29:45.251Z,66.50
2022-11-05T00:32:13.356Z,66.40
2022-11-05T00:34:41.504Z,66.40
2022-11-05T00:37:09.598Z,66.40
2022-11-05T00:39:37.665Z,66.40
2022-11-05T00:42:23.564Z,66.30
2022-11-05T00:45:02.239Z,66.40
2022-11-05T00:47:48.630Z,66.40
2022-11-05T00:50:16.842Z,66.30
2022-11-05T00:52:57.203Z,66.40
2022-11-05T00:55:28.201Z,66.40
2022-11-05T00:57:56.956Z,66.40
2022-11-05T01:00:28.865Z,66.40
2022-11-05T01:02:59.999Z,66.40
2022-11-05T01:05:28.965Z,66.40
2022-11-05T01:07:57.227Z,66.40
2022-11-05T01:10:25.800Z,66.40
2022-11-05T01:12:54.230Z,66.40
2022-11-05T01:15:22.946Z,66.30
2022-11-05T01:17:53.649Z,66.30
2022-11-05T01:20:21.761Z,66.40
2022-11-05T01:22:49.844Z,66.40
2022-11-05T01:25:18.098Z,66.40
2022-11-05T01:27:46.640Z,66.30
2022-11-05T01:30:15.277Z,66.30
2022-11-05T01:32:43.592Z,66.30
2022-11-05T01:35:15.757Z,66.30
2022-11-05T01:37:44.344Z,66.30
2022-11-05T01:40:14.329Z,66.30
2022-11-05T01:42:42.441Z,66.30
2022-11-05T01:45:16.116Z,66.30
2022-11-05T01:47:52.500Z,66.30
2022-11-05T01:50:31.595Z,66.30
2022-11-05T01:53:05.779Z,66.30
2022-11-05T01:55:37.777Z,66.30
2022-11-05T01:58:10.262Z,66.30
2022-11-05T02:00:40.225Z,66.30
2022-11-05T02:03:09.061Z,66.30
2022-11-05T02:05:41.296Z,66.30
2022-11-05T02:08:14.505Z,66.30
2022-11-05T02:10:45.885Z,66.30
2022-11-05T02:13:14.013Z,66.20
2022-11-05T02:15:52.985Z,66.20
2022-11-05T02:18:31.231Z,66.20
2022-11-05T02:21:25.648Z,66.20
2022-11-05T02:24:19.002Z,66.20
2022-11-05T02:27:11.777Z,66.20
2022-11-05T02:30:07.257Z,66.20
2022-11-05T02:32:57.467Z,66.10
2022-11-05T02:35:38.789Z,66.10
2022-11-05T02:38:10.264Z,66.10
2022-11-05T02:40:49.750Z,66.00
2022-11-05T02:43:25.397Z,66.00
2022-11-05T02:46:01.282Z,66.00
2022-11-05T02:48:40.467Z,66.00
2022-11-05T02:51:15.831Z,66.00
2022-11-05T02:53:50.514Z,66.00
2022-11-05T02:56:23.229Z,66.00
2022-11-05T02:58:51.360Z,66.00
2022-11-05T03:01:19.576Z,65.90
2022-11-05T03:03:52.766Z,66.00
2022-11-05T03:06:41.688Z,66.00
2022-11-05T03:09:40.986Z,66.00
2022-11-05T03:12:21.490Z,65.90
2022-11-05T03:14:57.116Z,66.10
2022-11-05T03:17:35.011Z,65.90
2022-11-05T03:20:12.581Z,65.90
2022-11-05T03:22:45.918Z,65.90
2022-11-05T03:25:19.123Z,65.90
2022-11-05T03:27:50.281Z,65.90
2022-11-05T03:30:20.201Z,65.80
2022-11-05T03:32:54.503Z,66.00
2022-11-05T03:35:28.211Z,66.00
2022-11-05T03:37:59.284Z,66.00
2022-11-05T03:40:29.538Z,65.90
2022-11-05T03:43:00.504Z,66.00
2022-11-05T03:45:33.722Z,66.00
2022-11-05T03:48:03.615Z,66.00
2022-11-05T03:50:41.442Z,66.00
2022-11-05T03:53:15.291Z,66.00
2022-11-05T03:55:51.766Z,66.00
2022-11-05T03:58:22.195Z,65.90
2022-11-05T04:00:51.771Z,66.00
2022-11-05T04:03:20.039Z,65.90
2022-11-05T04:06:10.345Z,65.90
2022-11-05T04:08:55.975Z,65.90
2022-11-05T04:11:43.757Z,65.90
2022-11-05T04:14:11.850Z,65.80
2022-11-05T04:16:57.450Z,65.80
2022-11-05T04:19:39.381Z,65.80
2022-11-05T04:22:26.484Z,65.70
2022-11-05T04:24:54.931Z,65.70
2022-11-05T04:27:23.239Z,65.60
2022-11-05T04:30:09.337Z,65.60
2022-11-05T04:32:37.411Z,65.60
2022-11-05T04:35:05.831Z,65.60
2022-11-05T04:37:35.276Z,65.70
2022-11-05T04:40:03.409Z,65.70
2022-11-05T04:42:31.461Z,65.70
2022-11-05T04:44:59.554Z,65.60
2022-11-05T04:47:27.637Z,65.70
2022-11-05T04:49:55.709Z,65.60
2022-11-05T04:52:23.806Z,65.60
2022-11-05T04:54:53.243Z,65.70
2022-11-05T04:57:21.289Z,65.60
2022-11-05T04:59:49.610Z,65.70
2022-11-05T05:02:17.742Z,65.70
2022-11-05T05:04:46.367Z,65.70
2022-11-05T05:07:14.484Z,65.70
2022-11-05T05:09:42.619Z,65.70
2022-11-05T05:12:12.043Z,65.60
2022-11-05T05:14:40.251Z,65.60
2022-11-05T05:17:08.393Z,65.60
2022-11-05T05:19:56.430Z,65.60
2022-11-05T05:22:23.571Z,65.60
2022-11-05T05:24:53.068Z,65.60
2022-11-05T05:27:23.442Z,65.60
2022-11-05T05:29:51.588Z,65.70
2022-11-05T05:32:19.629Z,65.70
2022-11-05T05:34:47.716Z,65.70
2022-11-05T05:37:15.891Z,65.70
2022-11-05T05:39:44.565Z,65.80
2022-11-05T05:42:12.860Z,65.80
2022-11-05T05:44:42.569Z,65.80
2022-11-05T05:47:10.646Z,65.80
2022-11-05T05:49:38.767Z,65.80
2022-11-05T05:52:07.194Z,65.80
2022-11-05T05:54:41.352Z,65.80
2022-11-05T05:57:10.796Z,65.90
2022-11-05T05:59:38.875Z,65.90
2022-11-05T06:02:08.535Z,65.80
2022-11-05T06:04:36.706Z,65.80
2022-11-05T06:07:04.799Z,65.80
2022-11-05T06:09:32.885Z,65.80
2022-11-05T06:12:00.992Z,65.80
2022-11-05T06:14:29.047Z,65.80
2022-11-05T06:16:57.103Z,65.70
2022-11-05T06:19:26.549Z,65.70
2022-11-05T06:21:54.635Z,65.70
2022-11-05T06:24:22.938Z,65.80
2022-11-05T06:26:51.030Z,65.70
2022-11-05T06:29:19.103Z,65.60
2022-11-05T06:31:47.241Z,65.70
2022-11-05T06:34:15.298Z,65.60
2022-11-05T06:36:44.708Z,65.60
2022-11-05T06:39:13.458Z,65.60
2022-11-05T06:44:29.624Z,65.50
2022-11-05T06:46:57.694Z,65.60
2022-11-05T06:49:25.747Z,65.60
2022-11-05T06:51:55.230Z,65.60
2022-11-05T06:54:23.304Z,65.70
2022-11-05T06:56:51.340Z,65.70
2022-11-05T06:59:19.413Z,65.70
2022-11-05T07:01:47.614Z,65.70
2022-11-05T07:04:15.909Z,65.70
2022-11-05T07:06:44.098Z,65.70
2022-11-05T07:09:13.571Z,65.70
2022-11-05T07:11:41.641Z,65.70
2022-11-05T07:14:09.736Z,65.70
2022-11-05T07:16:37.804Z,65.70
2022-11-05T07:19:05.925Z,65.70
2022-11-05T07:21:33.962Z,65.70
2022-11-05T07:24:02.246Z,65.70
2022-11-05T07:26:34.493Z,65.70
2022-11-05T07:29:03.253Z,65.70
2022-11-05T07:31:31.285Z,65.70
2022-11-05T07:33:59.521Z,65.70
2022-11-05T07:36:27.617Z,65.70
2022-11-05T07:39:00.143Z,65.70
2022-11-05T07:41:29.321Z,65.70
2022-11-05T07:43:58.813Z,65.70
2022-11-05T07:46:26.847Z,65.70
2022-11-05T07:48:54.930Z,65.70
2022-11-05T07:51:23.445Z,65.70
2022-11-05T07:53:51.533Z,65.70
2022-11-05T07:56:19.649Z,65.70
2022-11-05T07:58:47.709Z,65.70
2022-11-05T08:01:17.318Z,65.70
2022-11-05T08:03:45.718Z,65.70
2022-11-05T08:06:13.858Z,65.60
2022-11-05T08:08:41.942Z,65.60
2022-11-05T08:11:12.317Z,65.60
2022-11-05T08:13:42.603Z,65.50
2022-11-05T08:16:10.838Z,65.40
2022-11-05T08:18:40.372Z,65.50
2022-11-05T08:21:09.509Z,65.50
2022-11-05T08:23:39.028Z,65.50
2022-11-05T08:26:07.216Z,65.50
2022-11-05T08:28:35.270Z,65.60
2022-11-05T08:31:03.414Z,65.70
2022-11-05T08:33:33.128Z,65.80
2022-11-05T08:36:05.499Z,65.90
2022-11-05T08:38:33.622Z,66.00
2022-11-05T08:41:01.680Z,66.10
2022-11-05T08:43:29.753Z,66.10
2022-11-05T08:45:57.832Z,66.10
2022-11-05T08:48:25.925Z,66.10
2022-11-05T08:50:54.337Z,66.10
2022-11-05T08:53:23.849Z,66.20
2022-11-05T08:55:51.931Z,66.40
2022-11-05T08:58:20.823Z,66.40
2022-11-05T09:00:50.712Z,66.50
2022-11-05T09:03:45.685Z,66.60
2022-11-05T09:06:14.537Z,66.60
2022-11-05T09:08:43.954Z,66.70
2022-11-05T09:11:12.101Z,66.70
2022-11-05T09:13:40.230Z,66.70
2022-11-05T09:16:14.688Z,66.70
2022-11-05T09:18:43.019Z,66.70
2022-11-05T09:21:11.344Z,66.70
2022-11-05T09:23:39.925Z,66.70
2022-11-05T09:26:14.176Z,66.70
2022-11-05T09:28:43.976Z,66.80
2022-11-05T09:31:12.908Z,66.70
2022-11-05T09:33:42.251Z,66.70
2022-11-05T09:36:10.520Z,66.70
2022-11-05T09:38:38.649Z,66.80
2022-11-05T09:41:14.067Z,66.70
2022-11-05T09:43:45.324Z,66.70
2022-11-05T09:46:19.717Z,66.80
2022-11-05T09:48:50.418Z,66.80
2022-11-05T09:51:23.734Z,66.80
2022-11-05T09:53:53.580Z,66.80
2022-11-05T09:56:25.265Z,66.90
2022-11-05T09:58:58.771Z,66.90
2022-11-05T10:01:30.328Z,66.90
2022-11-05T10:04:01.818Z,67.10
2022-11-05T10:06:30.338Z,67.60
2022-11-05T10:09:19.028Z,67.50
2022-11-05T10:11:52.448Z,67.40
2022-11-05T10:14:25.394Z,67.40
2022-11-05T10:16:58.905Z,67.20
2022-11-05T10:19:30.154Z,68.70
2022-11-05T10:22:07.472Z,71.40
2022-11-05T10:24:36.202Z,72.10
2022-11-05T10:27:14.612Z,70.40
2022-11-05T10:29:44.540Z,69.30
2022-11-05T10:32:19.023Z,69.30
2022-11-05T10:34:47.183Z,69.20
2022-11-05T10:37:15.306Z,69.20
2022-11-05T10:39:43.384Z,69.00
2022-11-05T10:42:28.580Z,68.90
2022-11-05T10:45:03.079Z,68.80
2022-11-05T10:47:46.122Z,68.80
2022-11-05T10:50:17.954Z,68.80
2022-11-05T10:53:00.350Z,68.90
2022-11-05T10:55:30.922Z,68.50
2022-11-05T10:58:19.532Z,67.90
2022-11-05T11:01:02.902Z,67.80
2022-11-05T11:03:40.094Z,67.30
2022-11-05T11:06:22.880Z,67.00
2022-11-05T11:08:52.282Z,67.00
2022-11-05T11:11:29.475Z,67.50
2022-11-05T11:14:04.844Z,67.10
2022-11-05T11:16:38.812Z,67.30
2022-11-05T11:19:25.829Z,67.10
2022-11-05T11:22:22.994Z,67.00
2022-11-05T11:24:53.992Z,66.80
2022-11-05T11:27:30.172Z,66.60
2022-11-05T11:30:02.916Z,66.70
2022-11-05T11:32:37.028Z,66.70
2022-11-05T11:35:06.758Z,66.80
2022-11-05T11:37:41.796Z,66.90
2022-11-05T11:40:17.309Z,66.90
2022-11-05T11:42:48.472Z,67.00
2022-11-05T11:45:21.976Z,67.10
2022-11-05T11:47:51.186Z,67.20
2022-11-05T11:50:39.394Z,67.30
2022-11-05T11:53:32.005Z,67.30
2022-11-05T11:56:06.661Z,67.40
2022-11-05T11:58:44.928Z,67.40
2022-11-05T12:01:34.279Z,67.50
2022-11-05T12:04:15.638Z,67.50
2022-11-05T12:06:48.899Z,67.70
2022-11-05T12:09:24.747Z,67.60
2022-11-05T12:12:01.278Z,67.70
2022-11-05T12:14:41.176Z,67.80
2022-11-05T12:17:39.960Z,67.90
2022-11-05T12:20:35.375Z,67.90
2022-11-05T12:23:34.058Z,68.00
2022-11-05T12:26:10.088Z,68.00
2022-11-05T12:29:19.616Z,68.00
2022-11-05T12:31:55.427Z,68.10
2022-11-05T12:34:40.097Z,68.00
2022-11-05T12:37:30.803Z,68.10
2022-11-05T12:40:19.093Z,68.00
2022-11-05T12:42:58.934Z,68.00
2022-11-05T12:45:40.313Z,68.00
2022-11-05T12:48:29.191Z,68.00
2022-11-05T12:51:14.734Z,68.00
2022-11-05T12:53:53.412Z,68.00
2022-11-05T12:56:31.572Z,67.90
2022-11-05T12:59:05.314Z,67.90
2022-11-05T13:01:37.315Z,67.90
2022-11-05T13:04:14.249Z,67.90
2022-11-05T13:06:47.959Z,67.90
2022-11-05T13:09:20.229Z,67.90
2022-11-05T13:11:52.869Z,67.90
2022-11-05T13:14:24.817Z,67.90
2022-11-05T13:16:56.674Z,67.90
2022-11-05T13:19:29.543Z,67.90
2022-11-05T13:22:07.983Z,67.90
2022-11-05T13:24:40.757Z,68.00
2022-11-05T13:27:23.383Z,68.00
2022-11-05T13:29:54.461Z,68.00
2022-11-05T13:32:30.662Z,68.00
2022-11-05T13:34:59.560Z,68.10
2022-11-05T13:37:50.168Z,68.10
2022-11-05T13:40:21.166Z,68.10
2022-11-05T13:43:18.650Z,68.10
2022-11-05T13:46:05.569Z,68.20
2022-11-05T13:49:00.397Z,68.20
2022-11-05T13:51:45.818Z,68.20
2022-11-05T13:55:02.581Z,68.20
2022-11-05T13:57:47.807Z,68.20
2022-11-05T14:00:21.978Z,68.20
2022-11-05T14:02:53.052Z,68.20
2022-11-05T14:05:29.376Z,68.20
2022-11-05T14:07:59.399Z,68.20
2022-11-05T14:10:35.154Z,68.20
2022-11-05T14:13:20.622Z,68.20
2022-11-05T14:16:03.110Z,68.20
2022-11-05T14:18:45.407Z,68.20
2022-11-05T14:21:34.289Z,68.10
2022-11-05T14:24:39.903Z,68.20
2022-11-05T14:27:53.687Z,68.20
2022-11-05T14:30:43.934Z,66.60
2022-11-05T14:33:32.766Z,66.20
2022-11-05T14:36:37.577Z,66.30
2022-11-05T14:39:21.056Z,66.30
2022-11-05T14:42:05.007Z,66.10
2022-11-05T14:44:36.003Z,65.90
2022-11-05T14:47:09.036Z,65.80
2022-11-05T14:49:40.970Z,65.70
2022-11-05T14:52:11.279Z,65.80
2022-11-05T14:54:44.637Z,65.60
2022-11-05T14:57:15.483Z,65.60
2022-11-05T15:00:01.959Z,65.50
2022-11-05T15:02:37.587Z,65.40
2022-11-05T15:05:37.145Z,65.20
2022-11-05T15:08:30.278Z,65.30
2022-11-05T15:11:06.460Z,65.10
2022-11-05T15:13:39.295Z,65.10
2022-11-05T15:16:08.821Z,65.30
2022-11-05T15:18:44.345Z,65.40
2022-11-05T15:21:17.588Z,65.30
2022-11-05T15:23:47.776Z,65.40
2022-11-05T15:26:23.220Z,65.40
2022-11-05T15:28:52.987Z,65.40
2022-11-05T15:31:27.644Z,65.50
2022-11-05T15:36:56.387Z,65.50
2022-11-05T15:39:31.984Z,65.70
2022-11-05T15:42:04.531Z,65.60
2022-11-05T15:44:34.747Z,65.60
2022-11-05T15:47:14.971Z,65.80
2022-11-05T15:49:45.036Z,65.80
2022-11-05T15:52:17.094Z,65.60
2022-11-05T15:54:45.596Z,65.70
2022-11-05T15:57:24.625Z,65.80
2022-11-05T15:59:52.816Z,65.70
2022-11-05T16:02:28.875Z,65.70
2022-11-05T16:04:57.871Z,65.60
2022-11-05T16:07:28.707Z,65.60
2022-11-05T16:09:59.344Z,65.60
2022-11-05T16:12:33.257Z,65.60
2022-11-05T16:15:18.802Z,65.50
2022-11-05T16:17:49.952Z,65.50
2022-11-05T16:20:32.091Z,65.60
2022-11-05T16:23:03.527Z,65.20
2022-11-05T16:25:38.353Z,65.10
2022-11-05T16:28:19.915Z,65.20
2022-11-05T16:30:58.450Z,65.40
2022-11-05T16:33:32.425Z,65.20
2022-11-05T16:36:00.734Z,65.30
2022-11-05T16:38:30.128Z,65.20
2022-11-05T16:40:58.981Z,65.20
2022-11-05T16:43:27.496Z,65.20
2022-11-05T16:45:56.896Z,65.10
2022-11-05T16:48:25.789Z,65.00
2022-11-05T16:50:54.230Z,65.10
2022-11-05T16:53:22.325Z,65.00
2022-11-05T16:55:51.818Z,64.90
2022-11-05T16:58:22.893Z,64.90
2022-11-05T17:00:52.609Z,64.90
2022-11-05T17:03:20.775Z,64.80
2022-11-05T17:05:48.941Z,64.80
2022-11-05T17:08:17.002Z,64.80
2022-11-05T17:10:45.323Z,64.70
2022-11-05T17:13:16.933Z,64.70
2022-11-05T17:15:46.578Z,64.70
2022-11-05T17:18:18.542Z,64.60
2022-11-05T17:20:48.496Z,64.70
2022-11-05T17:23:18.197Z,64.60
2022-11-05T17:25:48.375Z,64.50
2022-11-05T17:28:18.453Z,64.50
2022-11-05T17:30:52.154Z,64.60
2022-11-05T17:33:22.776Z,64.60
2022-11-05T17:35:51.227Z,64.60
2022-11-05T17:38:19.766Z,64.50
2022-11-05T17:40:47.892Z,64.50
2022-11-05T17:43:17.477Z,64.50
2022-11-05T17:45:47.549Z,64.40
2022-11-05T17:48:16.179Z,64.40
2022-11-05T17:50:45.285Z,64.50
2022-11-05T17:53:14.234Z,64.40
2022-11-05T17:55:43.366Z,64.40
2022-11-05T17:58:11.961Z,64.50
2022-11-05T18:00:42.816Z,64.50
2022-11-05T18:03:11.869Z,64.40
2022-11-05T18:05:41.216Z,64.40
2022-11-05T18:08:09.974Z,64.40
2022-11-05T18:10:38.754Z,64.50
2022-11-05T18:13:07.498Z,64.60
2022-11-05T18:15:38.028Z,64.60
2022-11-05T18:18:07.771Z,64.50
2022-11-05T18:20:35.882Z,64.30
2022-11-05T18:23:04.096Z,64.50
2022-11-05T18:25:32.231Z,64.60
2022-11-05T18:28:00.289Z,64.60
2022-11-05T18:30:28.379Z,64.60
2022-11-05T18:32:56.424Z,64.70
2022-11-05T18:35:25.904Z,64.60
2022-11-05T18:37:53.980Z,64.70
2022-11-05T18:40:22.138Z,64.60
2022-11-05T18:42:50.249Z,64.60
2022-11-05T18:45:18.309Z,64.60
2022-11-05T18:47:46.368Z,64.60
2022-11-05T18:50:14.789Z,64.60
2022-11-05T18:52:45.079Z,64.60
2022-11-05T18:55:13.159Z,64.50
2022-11-05T18:57:41.252Z,64.50
2022-11-05T19:00:10.605Z,64.40
2022-11-05T19:02:39.002Z,64.50
2022-11-05T19:05:28.107Z,64.50
2022-11-05T19:07:57.211Z,64.40
2022-11-05T19:10:25.409Z,64.50
2022-11-05T19:12:53.721Z,64.30
2022-11-05T19:15:21.817Z,64.30
2022-11-05T19:17:49.846Z,64.30
2022-11-05T19:20:18.054Z,64.30
2022-11-05T19:22:46.220Z,64.40
2022-11-05T19:25:15.647Z,64.30
2022-11-05T19:27:43.783Z,64.30
2022-11-05T19:30:14.866Z,64.10
2022-11-05T19:32:42.989Z,64.20
2022-11-05T19:35:11.122Z,64.30
2022-11-05T19:37:39.204Z,64.30
2022-11-05T19:40:08.891Z,64.40
2022-11-05T19:42:38.384Z,64.50
2022-11-05T19:45:30.104Z,64.60
2022-11-05T19:47:55.659Z,64.60
2022-11-05T19:50:23.803Z,64.60
2022-11-05T19:52:51.900Z,64.60
2022-11-05T19:55:20.133Z,64.70
2022-11-05T19:57:49.628Z,64.60
2022-11-05T20:00:18.368Z,64.60
2022-11-05T20:02:46.804Z,64.50
2022-11-05T20:05:15.515Z,64.30
2022-11-05T20:07:47.011Z,64.20
2022-11-05T20:10:19.625Z,64.10
2022-11-05T20:12:49.073Z,64.00
2022-11-05T20:15:19.067Z,64.00
2022-11-05T20:17:50.787Z,64.00
2022-11-05T20:20:19.594Z,64.00
2022-11-05T20:22:47.694Z,64.10
2022-11-05T20:25:15.816Z,64.10
2022-11-05T20:27:43.904Z,64.20
2022-11-05T20:30:13.883Z,64.10
2022-11-05T20:32:42.066Z,64.00
2022-11-05T20:35:11.038Z,64.10
2022-11-05T20:37:39.131Z,64.00
2022-11-05T20:40:08.338Z,63.80
2022-11-05T20:42:37.858Z,63.90
2022-11-05T20:45:06.748Z,63.90
2022-11-05T20:47:37.517Z,63.90
2022-11-05T20:50:06.804Z,64.00
2022-11-05T20:52:35.343Z,64.10
2022-11-05T20:55:04.267Z,63.90
2022-11-05T20:57:32.428Z,63.80
2022-11-05T21:00:00.507Z,63.70
2022-11-05T21:02:28.720Z,63.60
2022-11-05T21:04:58.519Z,63.60
2022-11-05T21:07:26.606Z,63.50
2022-11-05T21:09:54.736Z,63.40
2022-11-05T21:12:23.076Z,63.30
2022-11-05T21:14:52.349Z,63.30
2022-11-05T21:17:20.487Z,63.10
2022-11-05T21:19:48.569Z,63.10
2022-11-05T21:22:17.995Z,63.10
2022-11-05T21:24:46.097Z,63.10
2022-11-05T21:27:14.197Z,63.20
2022-11-05T21:29:42.292Z,63.20
2022-11-05T21:32:11.655Z,63.00
2022-11-05T21:34:39.774Z,63.00
2022-11-05T21:37:08.000Z,62.90
2022-11-05T21:39:37.410Z,63.00
2022-11-05T21:42:05.672Z,63.20
2022-11-05T21:44:33.767Z,63.30
2022-11-05T21:47:04.411Z,63.20
2022-11-05T21:49:34.837Z,63.10
2022-11-05T21:52:20.610Z,63.00
2022-11-05T21:55:07.520Z,63.30
2022-11-05T21:57:53.433Z,63.30
2022-11-05T22:00:21.553Z,63.10
2022-11-05T22:02:49.757Z,63.10
2022-11-05T22:05:18.438Z,63.10
2022-11-05T22:07:47.121Z,63.00
2022-11-05T22:10:17.167Z,62.90
2022-11-05T22:12:45.441Z,62.80
2022-11-05T22:15:13.788Z,62.70
2022-11-05T22:17:46.555Z,62.70
2022-11-05T22:20:16.157Z,62.70
2022-11-05T22:22:44.589Z,62.60
2022-11-05T22:25:13.437Z,62.60
2022-11-05T22:27:43.908Z,62.50
2022-11-05T22:30:15.667Z,62.50
2022-11-05T22:32:43.751Z,62.40
2022-11-05T22:35:12.046Z,62.20
2022-11-05T22:37:40.274Z,62.40
2022-11-05T22:40:09.628Z,62.80
2022-11-05T22:42:37.791Z,62.50
2022-11-05T22:45:08.312Z,62.50
2022-11-05T22:47:36.384Z,62.40
2022-11-05T22:50:05.079Z,62.30
2022-11-05T22:52:33.280Z,62.30
2022-11-05T22:55:02.642Z,62.30
2022-11-05T22:57:30.745Z,62.40
2022-11-05T22:59:58.807Z,62.30
2022-11-05T23:02:28.364Z,62.40
2022-11-05T23:04:56.537Z,62.80
2022-11-05T23:07:42.094Z,63.00
2022-11-05T23:10:28.141Z,63.30
2022-11-05T23:12:56.369Z,63.30
2022-11-05T23:15:41.691Z,63.30
2022-11-05T23:18:28.849Z,63.30
2022-11-05T23:21:17.987Z,63.30
2022-11-05T23:24:09.801Z,63.30
2022-11-05T23:26:51.545Z,63.30
2022-11-05T23:29:20.977Z,63.30
2022-11-05T23:32:06.704Z,63.40
2022-11-05T23:34:36.634Z,63.40
2022-11-05T23:37:22.903Z,63.40
2022-11-05T23:39:51.585Z,63.40
2022-11-05T23:42:37.019Z,63.40
2022-11-05T23:45:23.566Z,63.50
2022-11-05T23:48:09.364Z,63.50
2022-11-05T23:50:40.241Z,63.50
2022-11-05T23:53:08.829Z,63.50
2022-11-05T23:55:37.430Z,63.50
2022-11-05T23:58:05.567Z,63.40
